Warrensburg, NY (12885)

7:36 AM EDT on July 07, 2015 (GMT -0400)
APRSWXNET | | Change Station
CLOSE
Current Station
Personal Weather Station
Location: Lake George, NY
Elevation: 935 ft
Nearby Weather Stations

Elev 935 ft 43.39 °N, 73.73 °W | Updated 17 minutes ago

Overcast
Overcast
68 °F
Feels Like 68 °F
N
2
Wind Variable Wind from North
Gusts 0.0 mph

Today
High -- | Low -- °F
--% Chance of Precip.
Yesterday
High -- | Low -- °F
Precip. -- in
5:21 AM 8:38 PM
Waning Gibbous, 65% visible
Pressure 30.04 in
Visibility 8.0 miles
Clouds Mostly Cloudy 2000 ft
Mostly Cloudy 4000 ft
Overcast 7500 ft
Dew Point 65 °F
Humidity 90%
Rainfall in
Snow Depth Not available.
UV 0 out of 12
Pollen 3.00 out of 12
Air Quality Not available.
Flu Activity Not available.
SPECI KGFL 071103Z AUTO 00000KT 8SM BKN020 BKN040 OVC075 22/19 A3004 RMK AO2 T02170189

More Conditions Fewer Conditions

Pressure 30.04 in
Visibility 8.0 miles
Clouds Mostly Cloudy 2000 ft
Mostly Cloudy 4000 ft
Overcast 7500 ft
Dew Point 65 °F
Humidity 90%
Rainfall in
Snow Depth Not available.
UV 0 out of 12
Pollen 3.00 out of 12
Air Quality Not available.
Flu Activity Not available.
SPECI KGFL 071103Z AUTO 00000KT 8SM BKN020 BKN040 OVC075 22/19 A3004 RMK AO2 T02170189

More Conditions Fewer Conditions

10-Day Weather Forecast

×

Almanac

Astronomy

Jul. 07, 2015 Rise Set
Actual Time
Civil Twilight
Nautical Twilight
Astronomical Twilight
Moon
Length of Visible Light
Length of Day
Tomorrow will be .
, % of the Moon is Illuminated

Today's Extremes

State Highs State Lows

Community

WunderPhotos

Upload Photos

1,835,768 photos uploaded!

WunderBlogs® & News

Nearby

Air Quality

  Air Quality AQ Index Pollutant
Not available.

Snow Depth

Station Depth Elevation

Earthquake Activity

City Distance Mag. Time & Date
Minimum magnitude displayed is 2.5.

Coastal Water Temperatures

Place Temperature

Stations

Nearby Weather Stations

Station Location Temp. Windchill Dew Point Humidity Wind Precip. Elev Updated Type